Time;durP1;ratioP1;P1;durP2;ratioP2;P2;SDS_P1;SDS_P2;PMS_P1;PMS_P2;Temp;Humidity;BMP_temperature;BMP_pressure;BME280_temperature;BME280_humidity;BME280_pressure;Samples;Min_cycle;Max_cycle;Signal;HPM_P1;HPM_P2
2024/04/04 00:01:11;;;;;;;8.30;3.88;;;10.90;99.90;;;;;;4959110;28;20049;-79
2024/04/04 00:03:37;;;;;;;7.18;3.58;;;10.80;99.90;;;;;;4959172;28;20046;-78
2024/04/04 00:06:04;;;;;;;9.55;4.28;;;10.90;99.90;;;;;;4960730;28;20400;-78
2024/04/04 00:08:31;;;;;;;6.50;3.00;;;10.80;99.90;;;;;;4995012;28;20089;-79
2024/04/04 00:11:09;;;;;;;8.85;3.35;;;10.80;99.90;;;;;;4978741;28;20069;-79
2024/04/04 00:13:36;;;;;;;10.43;4.25;;;10.80;99.90;;;;;;5017733;28;20057;-79
2024/04/04 00:16:02;;;;;;;8.68;3.65;;;10.80;99.90;;;;;;4978381;28;20077;-79
2024/04/04 00:18:28;;;;;;;9.68;2.88;;;10.80;99.90;;;;;;4977790;28;20038;-78
2024/04/04 00:20:54;;;;;;;8.07;4.07;;;10.70;99.90;;;;;;4961858;28;20456;-79
2024/04/04 00:23:20;;;;;;;9.00;2.25;;;10.70;99.90;;;;;;4994281;28;20408;-79
2024/04/04 00:25:47;;;;;;;7.95;3.85;;;10.60;99.90;;;;;;4978124;28;20050;-79
2024/04/04 00:28:13;;;;;;;6.68;3.55;;;10.60;99.90;;;;;;4978163;28;20054;-79
2024/04/04 00:30:39;;;;;;;7.93;3.05;;;10.60;99.90;;;;;;4962005;28;20089;-79
2024/04/04 00:33:05;;;;;;;3.92;2.45;;;10.60;99.90;;;;;;4994055;28;20046;-78
2024/04/04 00:35:31;;;;;;;9.25;5.35;;;10.60;99.90;;;;;;4977973;28;20057;-79
2024/04/04 00:37:57;;;;;;;5.55;3.90;;;10.50;99.90;;;;;;4961728;28;20073;-78
2024/04/04 00:40:23;;;;;;;9.32;4.68;;;10.60;99.90;;;;;;4978087;28;20041;-79
2024/04/04 00:42:50;;;;;;;6.40;2.80;;;10.50;99.90;;;;;;4994215;28;20373;-78
2024/04/04 00:45:16;;;;;;;4.93;2.60;;;10.50;99.90;;;;;;4994350;28;20515;-79
2024/04/04 00:47:47;;;;;;;6.20;3.40;;;10.50;99.90;;;;;;4994112;28;20054;-79
2024/04/04 00:50:14;;;;;;;9.20;3.22;;;10.60;99.90;;;;;;4961830;28;20105;-78
2024/04/04 00:52:41;;;;;;;12.45;3.47;;;10.60;99.90;;;;;;4961641;28;20057;-79
2024/04/04 00:55:07;;;;;;;9.07;2.50;;;10.60;99.90;;;;;;4961260;28;20092;-79
2024/04/04 00:57:35;;;;;;;7.75;4.05;;;10.60;99.90;;;;;;4993883;28;20054;-79
2024/04/04 01:00:03;;;;;;;10.18;3.08;;;10.50;99.90;;;;;;5010053;28;20057;-78
2024/04/04 01:02:29;;;;;;;4.68;2.30;;;10.50;99.90;;;;;;4961484;28;20043;-78
2024/04/04 01:04:55;;;;;;;10.30;3.15;;;10.50;99.90;;;;;;4961436;28;20069;-79
2024/04/04 01:07:22;;;;;;;9.57;3.47;;;10.50;99.90;;;;;;4993918;28;20499;-78
2024/04/04 01:09:48;;;;;;;8.93;4.75;;;10.50;99.90;;;;;;4945332;28;20057;-78
2024/04/04 01:12:14;;;;;;;4.63;2.30;;;10.40;99.90;;;;;;4977700;28;20042;-79
2024/04/04 01:14:40;;;;;;;7.05;2.05;;;10.40;99.90;;;;;;4961382;28;20049;-78
2024/04/04 01:17:06;;;;;;;7.90;3.13;;;10.40;99.90;;;;;;4960509;28;20045;-78
2024/04/04 01:19:32;;;;;;;11.23;3.42;;;10.40;99.90;;;;;;4977568;28;20416;-78
2024/04/04 01:21:58;;;;;;;4.20;3.22;;;10.30;99.90;;;;;;4960989;28;20047;-78
2024/04/04 01:24:24;;;;;;;9.63;3.13;;;10.30;99.90;;;;;;4961201;28;20053;-78
2024/04/04 01:26:50;;;;;;;6.60;3.58;;;10.30;99.90;;;;;;4944942;28;20050;-78
2024/04/04 01:29:16;;;;;;;4.55;2.25;;;10.20;99.90;;;;;;4993376;28;20042;-78
2024/04/04 01:31:42;;;;;;;9.52;3.67;;;10.10;99.90;;;;;;4960980;28;20047;-78
2024/04/04 01:34:08;;;;;;;11.45;2.55;;;10.10;99.90;;;;;;4976798;28;20035;-78
2024/04/04 01:36:34;;;;;;;5.78;2.88;;;10.10;99.90;;;;;;4960814;28;20511;-78
2024/04/04 01:39:01;;;;;;;9.93;2.60;;;10.10;99.90;;;;;;4976579;28;20058;-78
2024/04/04 01:41:27;;;;;;;7.35;3.17;;;10.10;99.90;;;;;;4993116;28;20038;-78
2024/04/04 01:43:53;;;;;;;7.40;2.35;;;10.10;99.90;;;;;;4944669;28;20046;-78
2024/04/04 01:46:19;;;;;;;2.95;2.17;;;10.10;99.90;;;;;;4945000;28;20034;-78
2024/04/04 01:48:45;;;;;;;9.63;3.00;;;10.20;99.90;;;;;;4960723;28;20403;-78
2024/04/04 01:51:11;;;;;;;5.00;2.95;;;10.10;99.90;;;;;;4992549;28;20038;-78
2024/04/04 01:53:38;;;;;;;8.45;2.10;;;10.10;99.90;;;;;;4976543;28;20408;-78
2024/04/04 01:56:04;;;;;;;8.43;2.55;;;10.00;99.90;;;;;;4960382;28;20065;-78
2024/04/04 01:58:30;;;;;;;2.80;2.00;;;9.90;99.90;;;;;;4992832;28;20476;-78
2024/04/04 02:00:56;;;;;;;1.88;1.40;;;9.80;99.90;;;;;;4976508;28;20046;-78
2024/04/04 02:03:22;;;;;;;10.20;2.20;;;9.80;99.90;;;;;;4992663;28;20046;-78
2024/04/04 02:05:48;;;;;;;6.28;2.78;;;9.70;99.90;;;;;;4976504;28;20038;-79
2024/04/04 02:08:14;;;;;;;5.75;1.98;;;9.60;99.90;;;;;;4976348;28;20044;-78
2024/04/04 02:10:42;;;;;;;5.28;1.98;;;9.50;99.90;;;;;;4976367;28;20050;-78
2024/04/04 02:13:08;;;;;;;6.40;1.92;;;9.40;99.90;;;;;;4992331;28;20065;-78
2024/04/04 02:15:39;;;;;;;9.10;1.60;;;9.40;99.90;;;;;;4976122;28;20391;-78
2024/04/04 02:18:06;;;;;;;8.02;1.95;;;9.30;99.90;;;;;;4960465;28;20057;-78
2024/04/04 02:20:32;;;;;;;4.65;1.98;;;9.20;99.90;;;;;;4960279;28;20046;-78
2024/04/04 02:22:59;;;;;;;4.38;1.95;;;9.20;99.90;;;;;;4992098;28;20039;-78
2024/04/04 02:25:25;;;;;;;2.03;1.40;;;9.10;99.90;;;;;;4992320;28;20050;-78
2024/04/04 02:27:51;;;;;;;6.97;2.58;;;9.00;99.90;;;;;;4959908;28;20503;-78
2024/04/04 02:30:17;;;;;;;5.03;1.92;;;8.90;99.90;;;;;;4975023;28;20049;-78
2024/04/04 02:32:43;;;;;;;6.90;1.88;;;8.90;99.90;;;;;;4992295;28;20085;-78
2024/04/04 02:35:09;;;;;;;8.73;1.98;;;8.80;99.90;;;;;;4975584;28;20038;-78
2024/04/04 02:37:35;;;;;;;3.40;1.30;;;9.00;99.90;;;;;;4959859;28;20505;-78
2024/04/04 02:40:01;;;;;;;4.20;1.67;;;8.70;99.90;;;;;;4975776;28;20050;-78
2024/04/04 02:42:28;;;;;;;5.10;2.42;;;8.70;99.90;;;;;;4992011;28;20070;-78
2024/04/04 02:44:54;;;;;;;5.88;2.05;;;8.60;99.90;;;;;;4959974;28;20054;-78
2024/04/04 02:47:20;;;;;;;8.70;2.38;;;8.60;99.90;;;;;;4959588;28;20038;-78
2024/04/04 02:49:46;;;;;;;7.28;2.38;;;8.60;99.90;;;;;;4959557;28;20385;-78
2024/04/04 02:52:12;;;;;;;7.57;2.33;;;8.60;99.90;;;;;;4959454;28;20116;-78
2024/04/04 02:54:38;;;;;;;8.77;2.33;;;8.50;99.90;;;;;;4975637;28;20553;-78
2024/04/04 02:57:04;;;;;;;5.07;2.25;;;8.50;99.90;;;;;;4991699;28;20047;-78
2024/04/04 02:59:30;;;;;;;5.22;2.03;;;8.50;99.90;;;;;;4959689;28;20057;-78
2024/04/04 03:01:56;;;;;;;5.13;1.48;;;8.50;99.90;;;;;;4976469;28;20041;-78
2024/04/04 03:04:24;;;;;;;5.50;2.13;;;8.50;99.90;;;;;;4984326;28;20477;-78
2024/04/04 03:06:53;;;;;;;10.60;2.72;;;8.70;99.90;;;;;;5010975;28;20049;-78
2024/04/04 03:09:20;;;;;;;3.95;1.83;;;8.40;99.90;;;;;;5010933;28;20391;-78
2024/04/04 03:11:46;;;;;;;5.57;1.38;;;8.40;99.90;;;;;;4991832;28;20034;-78
2024/04/04 03:14:12;;;;;;;6.25;1.35;;;8.40;99.90;;;;;;4991509;28;20049;-78
2024/04/04 03:16:38;;;;;;;3.95;2.22;;;8.50;99.90;;;;;;4991341;28;20035;-78
2024/04/04 03:19:04;;;;;;;13.20;2.63;;;8.50;99.90;;;;;;4959477;28;20050;-78
2024/04/04 03:21:30;;;;;;;5.57;1.80;;;8.50;99.90;;;;;;4959671;28;20043;-78
2024/04/04 03:23:56;;;;;;;5.75;1.83;;;8.40;99.90;;;;;;4959538;28;20073;-78
2024/04/04 03:26:22;;;;;;;6.13;2.03;;;8.40;99.90;;;;;;4959311;28;20412;-78
2024/04/04 03:28:48;;;;;;;5.47;2.65;;;8.40;99.90;;;;;;4975632;28;20089;-78
2024/04/04 03:31:14;;;;;;;10.68;3.00;;;8.40;99.90;;;;;;4975173;28;20050;-78
2024/04/04 03:33:40;;;;;;;3.75;1.33;;;8.40;99.90;;;;;;4959194;28;20464;-78
2024/04/04 03:36:06;;;;;;;12.35;2.38;;;8.30;99.90;;;;;;4959337;28;20065;-78
2024/04/04 03:38:32;;;;;;;8.23;2.83;;;8.40;99.90;;;;;;4975202;28;20101;-78
2024/04/04 03:40:58;;;;;;;5.32;2.30;;;8.30;99.90;;;;;;4961256;28;20046;-78
2024/04/04 03:43:24;;;;;;;2.67;1.95;;;8.40;99.90;;;;;;4962768;28;20102;-78
2024/04/04 03:45:50;;;;;;;4.07;1.88;;;8.40;99.90;;;;;;4947018;28;20050;-78
2024/04/04 03:48:20;;;;;;;8.55;2.70;;;8.40;99.90;;;;;;4962740;28;20050;-78
2024/04/04 03:50:48;;;;;;;3.97;1.50;;;8.40;99.90;;;;;;4995366;28;20070;-78
2024/04/04 03:53:15;;;;;;;8.32;2.10;;;8.40;99.90;;;;;;4978722;28;20054;-78
2024/04/04 03:55:41;;;;;;;5.28;2.42;;;8.40;99.90;;;;;;4978962;28;20050;-78
2024/04/04 03:58:09;;;;;;;3.40;2.28;;;8.50;99.90;;;;;;4995261;28;20050;-78
2024/04/04 04:00:35;;;;;;;4.57;1.38;;;8.50;99.90;;;;;;4962711;28;20395;-78
2024/04/04 04:03:01;;;;;;;4.88;1.60;;;8.60;99.90;;;;;;4978894;28;20039;-79
2024/04/04 04:05:27;;;;;;;4.68;1.85;;;8.60;99.90;;;;;;4962568;28;20050;-78
2024/04/04 04:07:53;;;;;;;2.75;1.15;;;8.70;99.90;;;;;;4946700;28;20050;-78
2024/04/04 04:10:19;;;;;;;3.42;1.77;;;8.70;99.90;;;;;;4962457;28;20669;-78
2024/04/04 04:12:45;;;;;;;8.10;2.75;;;8.70;99.90;;;;;;4978566;28;20043;-78
2024/04/04 04:15:11;;;;;;;3.53;2.60;;;8.80;99.90;;;;;;4978369;28;20488;-78
2024/04/04 04:17:37;;;;;;;2.47;1.98;;;8.90;99.90;;;;;;4962195;28;20137;-77
2024/04/04 04:21:17;;;;;;;3.60;1.85;;;8.90;99.90;;;;;;4962484;28;20050;-78
2024/04/04 04:22:50;;;;;;;4.38;2.75;;;9.00;99.90;;;;;;4981190;28;20076;-78
2024/04/04 04:25:16;;;;;;;4.88;2.20;;;9.00;99.90;;;;;;4962128;28;20057;-78
2024/04/04 04:27:42;;;;;;;2.67;1.05;;;9.00;99.90;;;;;;4978301;28;20046;-79
2024/04/04 04:30:09;;;;;;;6.93;2.65;;;9.10;99.90;;;;;;4978417;28;20050;-78
2024/04/04 04:32:35;;;;;;;3.15;2.10;;;9.10;99.90;;;;;;4994390;28;20043;-79
2024/04/04 04:35:01;;;;;;;7.47;2.10;;;9.10;99.90;;;;;;4962099;28;20084;-78
2024/04/04 04:37:27;;;;;;;6.13;1.85;;;9.20;99.90;;;;;;4978251;28;20396;-79
2024/04/04 04:39:53;;;;;;;5.85;1.48;;;9.20;99.90;;;;;;4977875;28;20062;-78
2024/04/04 04:42:19;;;;;;;3.40;1.77;;;9.20;99.90;;;;;;4977935;28;20050;-78
2024/04/04 04:44:45;;;;;;;4.22;1.17;;;9.30;99.90;;;;;;4961884;28;20085;-78
2024/04/04 04:47:11;;;;;;;3.47;1.63;;;9.30;99.90;;;;;;4962064;28;20467;-78
2024/04/04 04:49:37;;;;;;;4.25;1.35;;;9.30;99.90;;;;;;4961785;28;20090;-79
2024/04/04 04:52:03;;;;;;;3.55;1.13;;;9.30;99.90;;;;;;4992992;28;20055;-78
2024/04/04 04:54:29;;;;;;;5.22;2.30;;;9.30;99.90;;;;;;4945623;28;20049;-78
2024/04/04 04:56:55;;;;;;;3.25;1.45;;;9.40;99.90;;;;;;4945831;28;20050;-78
2024/04/04 04:59:21;;;;;;;3.10;1.13;;;9.30;99.90;;;;;;4993682;28;20407;-78
2024/04/04 05:01:47;;;;;;;4.32;1.73;;;9.40;99.90;;;;;;4966276;28;20626;-78
2024/04/04 05:04:13;;;;;;;1.65;0.80;;;9.40;99.90;;;;;;4980604;28;20069;-78
2024/04/04 05:06:39;;;;;;;1.60;1.02;;;9.40;99.90;;;;;;5013087;28;20384;-78
2024/04/04 05:09:05;;;;;;;2.97;0.88;;;9.40;99.90;;;;;;4996866;28;20041;-78
2024/04/04 05:11:31;;;;;;;3.08;0.98;;;9.40;99.90;;;;;;4980513;28;20496;-78
2024/04/04 05:13:57;;;;;;;2.38;1.00;;;9.50;99.90;;;;;;4980482;28;20057;-78
2024/04/04 05:16:24;;;;;;;2.58;1.42;;;9.50;99.90;;;;;;4996506;28;20435;-78
2024/04/04 05:18:49;;;;;;;2.72;2.33;;;9.50;99.90;;;;;;4981006;28;20050;-78
2024/04/04 05:21:15;;;;;;;2.45;1.05;;;9.50;99.90;;;;;;4964591;28;20046;-78
2024/04/04 05:23:41;;;;;;;3.75;1.15;;;9.50;99.90;;;;;;4996687;28;20046;-78
2024/04/04 05:26:07;;;;;;;4.75;1.60;;;9.50;99.90;;;;;;4996718;28;20050;-78
2024/04/04 05:28:34;;;;;;;4.05;1.40;;;9.60;99.90;;;;;;5012933;28;20045;-78
2024/04/04 05:31:00;;;;;;;3.10;1.23;;;9.60;99.90;;;;;;4996741;28;20037;-78
2024/04/04 05:33:26;;;;;;;1.67;1.50;;;9.60;99.90;;;;;;4980195;28;20088;-78
2024/04/04 05:35:55;;;;;;;4.82;1.98;;;9.60;99.90;;;;;;4996349;28;20396;-78
2024/04/04 05:38:21;;;;;;;3.13;1.60;;;9.60;99.90;;;;;;4996221;28;20057;-78
2024/04/04 05:40:48;;;;;;;4.90;2.08;;;9.60;99.90;;;;;;4996260;28;20080;-78
2024/04/04 05:43:14;;;;;;;3.33;2.10;;;9.60;99.90;;;;;;5012746;28;20045;-78
2024/04/04 05:45:40;;;;;;;7.00;2.00;;;9.60;99.90;;;;;;4979914;28;20057;-78
2024/04/04 05:48:06;;;;;;;5.32;2.00;;;9.70;99.90;;;;;;4996173;28;20046;-78
2024/04/04 05:50:34;;;;;;;3.85;1.70;;;9.70;99.90;;;;;;4980056;28;20446;-78
2024/04/04 05:53:01;;;;;;;5.03;2.17;;;9.70;99.90;;;;;;4964597;28;20092;-79
2024/04/04 05:55:28;;;;;;;2.03;1.75;;;9.80;99.90;;;;;;4979677;28;20050;-79
2024/04/04 05:57:54;;;;;;;2.13;1.92;;;9.80;99.90;;;;;;4979663;28;20048;-79
2024/04/04 06:00:20;;;;;;;3.92;1.65;;;9.80;99.90;;;;;;4996054;28;20046;-79
2024/04/04 06:02:48;;;;;;;4.25;2.70;;;9.90;99.90;;;;;;4931585;28;20078;-78
2024/04/04 06:05:14;;;;;;;2.40;1.45;;;9.90;99.90;;;;;;4983240;28;20052;-78
2024/04/04 06:07:40;;;;;;;4.65;2.47;;;9.90;99.90;;;;;;4963612;28;20077;-78
2024/04/04 06:10:07;;;;;;;4.20;1.92;;;9.90;99.90;;;;;;4995559;28;20041;-78
2024/04/04 06:12:33;;;;;;;4.15;2.28;;;9.90;99.90;;;;;;4979286;28;20108;-78
2024/04/04 06:14:59;;;;;;;4.15;2.05;;;9.90;99.90;;;;;;4963841;28;20065;-78
2024/04/04 06:17:25;;;;;;;4.10;1.60;;;9.90;99.90;;;;;;4963552;28;20120;-79
2024/04/04 06:19:52;;;;;;;4.07;1.80;;;9.80;99.90;;;;;;4979550;28;20451;-79
2024/04/04 06:22:18;;;;;;;5.65;2.22;;;9.80;99.90;;;;;;4979511;28;20100;-79
2024/04/04 06:24:45;;;;;;;4.15;2.83;;;9.80;99.90;;;;;;4979363;28;20088;-78
2024/04/04 06:27:11;;;;;;;3.42;1.58;;;9.80;99.90;;;;;;4979581;28;20471;-78
2024/04/04 06:29:38;;;;;;;2.63;2.00;;;9.70;99.90;;;;;;4979292;28;20081;-78
2024/04/04 06:32:05;;;;;;;5.75;3.30;;;9.70;99.90;;;;;;5011938;28;20046;-78
2024/04/04 06:34:33;;;;;;;6.43;2.50;;;9.70;99.90;;;;;;4979378;28;20052;-78
2024/04/04 06:37:00;;;;;;;1.73;1.63;;;9.90;99.90;;;;;;4963635;28;20129;-78
2024/04/04 06:39:26;;;;;;;3.53;2.35;;;9.70;99.90;;;;;;4979239;28;20539;-78
2024/04/04 06:41:53;;;;;;;7.90;4.78;;;9.70;99.90;;;;;;4979086;28;20407;-78
2024/04/04 06:44:19;;;;;;;3.20;2.90;;;9.70;99.90;;;;;;4963476;28;20050;-78
2024/04/04 06:46:45;;;;;;;4.32;2.25;;;9.70;99.90;;;;;;4979056;28;20046;-78
2024/04/04 06:49:11;;;;;;;8.50;3.15;;;9.70;99.90;;;;;;4979243;28;20132;-78
2024/04/04 06:51:37;;;;;;;6.28;3.05;;;9.70;99.90;;;;;;4979066;28;20049;-78
2024/04/04 06:54:04;;;;;;;2.85;1.52;;;9.70;99.90;;;;;;4978887;28;20380;-79
2024/04/04 06:56:30;;;;;;;5.03;3.58;;;9.70;99.90;;;;;;4963052;28;20538;-78
2024/04/04 06:58:56;;;;;;;8.93;2.92;;;9.60;99.90;;;;;;5011155;28;20045;-79
2024/04/04 07:01:25;;;;;;;3.80;3.60;;;9.70;99.90;;;;;;4979040;28;20046;-78
2024/04/04 07:03:52;;;;;;;3.47;2.53;;;9.60;99.90;;;;;;4979239;28;20052;-78
2024/04/04 07:06:18;;;;;;;8.45;3.85;;;9.60;99.90;;;;;;4979059;28;20054;-78
2024/04/04 07:08:45;;;;;;;5.13;4.57;;;9.70;99.90;;;;;;4994890;28;20050;-78
2024/04/04 07:11:11;;;;;;;3.75;3.17;;;9.70;99.90;;;;;;4994995;28;20080;-78
2024/04/04 07:13:39;;;;;;;5.75;3.42;;;9.70;99.90;;;;;;4978886;28;20088;-78
2024/04/04 07:16:11;;;;;;;7.97;4.78;;;9.70;99.90;;;;;;4997336;28;20038;-79
2024/04/04 07:18:38;;;;;;;5.25;4.57;;;9.70;99.90;;;;;;4983924;28;20100;-79
2024/04/04 07:21:06;;;;;;;5.97;4.18;;;9.70;99.90;;;;;;4998847;28;20137;-79
2024/04/04 07:23:35;;;;;;;4.03;2.92;;;9.80;99.90;;;;;;4983252;28;20112;-78
2024/04/04 07:26:02;;;;;;;3.63;3.33;;;9.90;99.90;;;;;;4998861;28;20077;-78
2024/04/04 07:28:28;;;;;;;2.63;2.40;;;9.90;99.90;;;;;;5015521;28;20517;-78
2024/04/04 07:30:54;;;;;;;7.53;3.72;;;10.00;99.90;;;;;;4998865;28;20068;-78
2024/04/04 07:33:20;;;;;;;5.32;4.07;;;10.00;99.90;;;;;;4982603;28;20103;-78
2024/04/04 07:35:47;;;;;;;3.67;2.78;;;10.10;99.90;;;;;;4982267;28;20050;-79
2024/04/04 07:38:13;;;;;;;4.88;3.47;;;10.10;99.90;;;;;;5014725;28;20124;-79
2024/04/04 07:40:40;;;;;;;3.75;2.88;;;10.10;99.90;;;;;;4982460;28;20050;-78
2024/04/04 07:43:08;;;;;;;7.40;4.25;;;10.20;99.90;;;;;;5014933;28;20057;-78
2024/04/04 07:45:42;;;;;;;3.72;2.58;;;10.20;99.90;;;;;;4998390;28;20084;-78
2024/04/04 07:48:11;;;;;;;4.50;4.03;;;10.30;99.90;;;;;;5014752;28;20092;-79
2024/04/04 07:50:37;;;;;;;5.20;4.72;;;10.30;99.90;;;;;;4982287;28;20050;-78
2024/04/04 07:53:03;;;;;;;4.88;4.00;;;10.30;99.90;;;;;;5014515;28;20547;-79
2024/04/04 07:55:30;;;;;;;6.18;5.65;;;10.40;99.90;;;;;;4950175;28;20053;-79
2024/04/04 07:57:57;;;;;;;4.38;3.97;;;10.40;99.90;;;;;;4982032;28;20042;-79
2024/04/04 08:00:24;;;;;;;6.05;5.55;;;10.50;99.90;;;;;;5014652;28;20134;-78
2024/04/04 08:02:50;;;;;;;4.85;3.70;;;10.50;99.90;;;;;;4998194;28;20065;-78
2024/04/04 08:05:16;;;;;;;5.38;4.88;;;10.60;99.90;;;;;;4982145;28;20160;-77
2024/04/04 08:07:43;;;;;;;5.68;4.72;;;10.60;99.90;;;;;;4982093;28;20089;-78
2024/04/04 08:10:11;;;;;;;5.45;4.25;;;10.70;99.90;;;;;;4966007;28;20073;-78
2024/04/04 08:12:37;;;;;;;7.13;6.53;;;10.90;99.90;;;;;;4997917;28;20052;-78
2024/04/04 08:15:05;;;;;;;6.20;5.68;;;10.90;99.90;;;;;;4991870;28;20125;-78
2024/04/04 08:17:32;;;;;;;5.63;5.10;;;11.00;99.90;;;;;;4972716;28;20132;-78
2024/04/04 08:19:59;;;;;;;5.30;3.92;;;11.00;99.90;;;;;;4965318;28;20042;-78
2024/04/04 08:22:25;;;;;;;6.32;5.80;;;11.10;99.90;;;;;;4965709;28;20498;-78
2024/04/04 08:24:52;;;;;;;4.28;3.95;;;11.00;99.90;;;;;;4981425;28;20120;-78
2024/04/04 08:27:21;;;;;;;4.32;3.92;;;11.10;99.90;;;;;;4981349;28;20152;-78
2024/04/04 08:29:48;;;;;;;6.53;4.72;;;11.10;99.90;;;;;;4981776;28;20057;-78
2024/04/04 08:32:14;;;;;;;3.88;3.58;;;11.20;99.90;;;;;;4981294;28;20049;-78
2024/04/04 08:34:41;;;;;;;5.68;5.05;;;11.20;99.90;;;;;;4981240;28;20041;-78
2024/04/04 08:37:07;;;;;;;4.38;3.97;;;11.10;99.90;;;;;;4981306;28;20455;-78
2024/04/04 08:39:34;;;;;;;3.90;3.53;;;11.10;99.90;;;;;;4981197;28;20060;-78
2024/04/04 08:42:01;;;;;;;3.42;3.13;;;11.20;99.90;;;;;;4981283;28;20080;-78
2024/04/04 08:44:28;;;;;;;5.75;4.25;;;11.20;99.90;;;;;;4997219;28;20041;-78
2024/04/04 08:46:55;;;;;;;3.92;3.50;;;11.20;99.90;;;;;;5013643;28;20085;-79
2024/04/04 08:49:28;;;;;;;5.30;4.07;;;11.20;99.90;;;;;;4997499;28;20104;-78
2024/04/04 08:51:55;;;;;;;4.47;4.03;;;11.20;99.90;;;;;;5013306;28;20046;-78
2024/04/04 08:54:26;;;;;;;4.22;3.92;;;11.20;99.90;;;;;;4981000;28;20056;-78
2024/04/04 08:56:53;;;;;;;4.40;4.05;;;11.20;99.90;;;;;;4997504;28;20042;-78
2024/04/04 08:59:21;;;;;;;3.97;3.65;;;11.30;99.90;;;;;;4981293;28;20081;-78
2024/04/04 09:01:47;;;;;;;4.50;3.90;;;11.30;99.90;;;;;;4981407;28;20395;-78
2024/04/04 09:04:24;;;;;;;4.32;4.03;;;11.40;99.90;;;;;;4980908;28;20407;-78
2024/04/04 09:06:51;;;;;;;3.13;2.83;;;11.40;99.90;;;;;;4981081;28;20196;-78
2024/04/04 09:09:18;;;;;;;3.97;3.67;;;11.40;99.90;;;;;;5013050;28;20084;-78
2024/04/04 09:11:44;;;;;;;3.47;2.88;;;11.40;99.90;;;;;;5013116;28;20100;-78
2024/04/04 09:14:10;;;;;;;2.55;2.35;;;11.50;99.90;;;;;;4980620;28;20376;-78
2024/04/04 09:16:38;;;;;;;2.47;2.20;;;11.60;99.90;;;;;;4980791;28;20045;-78
2024/04/04 09:19:11;;;;;;;2.88;2.17;;;11.60;99.90;;;;;;4980549;28;20092;-78
2024/04/04 09:21:39;;;;;;;1.90;1.75;;;11.70;99.90;;;;;;4980616;28;20046;-78
2024/04/04 09:24:08;;;;;;;2.22;2.13;;;11.70;99.90;;;;;;4980846;28;20053;-78
2024/04/04 09:26:36;;;;;;;2.67;1.70;;;11.80;99.90;;;;;;5013107;28;20073;-78
2024/04/04 09:29:04;;;;;;;1.73;1.63;;;11.80;99.90;;;;;;4980381;28;20156;-78
2024/04/04 09:31:34;;;;;;;2.35;1.90;;;11.90;99.90;;;;;;4996562;28;20038;-78
2024/04/04 09:34:01;;;;;;;2.28;2.05;;;12.00;99.90;;;;;;5012441;28;20042;-78
2024/04/04 09:36:31;;;;;;;3.90;3.17;;;12.10;99.90;;;;;;4996501;28;20045;-78
2024/04/04 09:38:59;;;;;;;2.10;1.90;;;12.10;99.90;;;;;;4979618;28;20049;-78
2024/04/04 09:41:28;;;;;;;3.10;2.25;;;12.20;99.90;;;;;;4996550;28;20065;-78
2024/04/04 09:43:57;;;;;;;2.63;2.42;;;12.20;99.90;;;;;;5012591;28;20128;-78
2024/04/04 09:46:28;;;;;;;2.33;2.08;;;12.30;99.90;;;;;;4996796;28;20057;-78
2024/04/04 09:48:55;;;;;;;2.92;1.60;;;12.30;99.90;;;;;;5012668;28;20054;-78
2024/04/04 09:51:22;;;;;;;2.92;2.53;;;12.40;99.90;;;;;;5012150;28;20054;-78
2024/04/04 09:53:49;;;;;;;2.17;1.83;;;12.50;99.90;;;;;;5012444;28;20129;-78
2024/04/04 09:56:19;;;;;;;2.58;1.65;;;12.50;99.90;;;;;;4995876;28;20514;-78
2024/04/04 09:58:46;;;;;;;3.35;2.45;;;12.60;99.90;;;;;;5028895;28;20125;-78
2024/04/04 10:01:21;;;;;;;3.75;2.55;;;12.50;99.90;;;;;;4996024;28;20168;-78
2024/04/04 10:03:51;;;;;;;3.10;2.22;;;12.50;99.90;;;;;;5012354;28;20046;-79
2024/04/04 10:06:36;;;;;;;2.28;2.03;;;12.50;99.90;;;;;;4979619;28;20199;-79
2024/04/04 10:09:16;;;;;;;10.88;2.80;;;12.50;99.90;;;;;;4979696;28;20057;-78
2024/04/04 10:11:43;;;;;;;3.03;1.98;;;12.50;99.90;;;;;;4995685;28;20432;-78
2024/04/04 10:14:14;;;;;;;3.92;2.85;;;12.50;99.90;;;;;;4963561;28;20054;-78
2024/04/04 10:16:45;;;;;;;3.20;2.83;;;12.40;99.90;;;;;;4995853;28;20033;-78
2024/04/04 10:19:12;;;;;;;2.80;2.25;;;12.40;99.90;;;;;;5011740;28;20045;-78
2024/04/04 10:21:39;;;;;;;3.55;2.50;;;12.20;99.90;;;;;;5012068;28;20045;-78
2024/04/04 10:24:06;;;;;;;3.70;3.15;;;12.10;99.90;;;;;;4979487;28;20056;-78
2024/04/04 10:26:32;;;;;;;2.78;1.98;;;12.10;99.90;;;;;;5011911;28;20033;-79
2024/04/04 10:28:59;;;;;;;3.38;2.15;;;12.00;99.90;;;;;;4979600;28;20042;-79
2024/04/04 10:31:25;;;;;;;3.90;3.10;;;12.00;99.90;;;;;;5011632;28;20042;-79
2024/04/04 10:34:04;;;;;;;2.53;2.33;;;12.00;99.90;;;;;;5011903;28;20084;-78
2024/04/04 10:36:41;;;;;;;2.70;1.90;;;12.10;99.90;;;;;;5011714;28;20037;-77
2024/04/04 10:39:13;;;;;;;2.17;1.65;;;12.10;99.90;;;;;;5011644;28;20041;-78
2024/04/04 10:41:40;;;;;;;2.30;1.67;;;12.10;99.90;;;;;;5011890;28;20042;-78
2024/04/04 10:44:14;;;;;;;2.90;2.63;;;12.20;99.90;;;;;;5011781;28;20088;-78
2024/04/04 10:46:54;;;;;;;3.92;2.20;;;12.10;99.90;;;;;;4979558;28;20049;-79
2024/04/04 10:49:27;;;;;;;3.08;2.08;;;12.10;99.90;;;;;;5011316;28;20034;-79
2024/04/04 10:52:01;;;;;;;2.97;2.25;;;12.00;99.90;;;;;;4995225;28;20042;-77
2024/04/04 10:54:28;;;;;;;3.17;1.92;;;12.00;99.90;;;;;;5011142;28;20053;-77
2024/04/04 10:56:55;;;;;;;2.55;1.70;;;12.00;99.90;;;;;;4994997;28;20046;-76
2024/04/04 10:59:21;;;;;;;1.33;1.23;;;12.00;99.90;;;;;;4978781;28;20053;-77
2024/04/04 11:01:49;;;;;;;3.28;1.77;;;12.00;99.90;;;;;;5011406;28;20427;-76
2024/04/04 11:04:16;;;;;;;1.75;1.10;;;12.00;99.90;;;;;;4995090;28;20041;-76
2024/04/04 11:06:43;;;;;;;1.83;1.02;;;12.10;99.90;;;;;;4978887;28;20046;-76
2024/04/04 11:09:19;;;;;;;1.10;0.95;;;12.30;99.90;;;;;;4978771;28;20053;-76
2024/04/04 11:11:53;;;;;;;1.90;1.67;;;12.50;99.90;;;;;;4979990;28;20050;-76
2024/04/04 11:14:21;;;;;;;2.47;1.40;;;12.70;99.90;;;;;;5011184;28;20045;-76
2024/04/04 11:16:49;;;;;;;2.42;1.80;;;12.70;99.90;;;;;;5011321;28;20038;-76
2024/04/04 11:19:16;;;;;;;1.92;1.25;;;12.90;99.90;;;;;;4995177;28;20379;-77
2024/04/04 11:21:42;;;;;;;1.50;1.40;;;13.10;99.90;;;;;;5011301;28;20042;-78
2024/04/04 11:24:08;;;;;;;3.38;2.00;;;13.10;99.90;;;;;;4995076;28;20084;-78
2024/04/04 11:26:34;;;;;;;1.92;1.75;;;13.00;99.90;;;;;;4994830;28;20041;-79
2024/04/04 11:29:00;;;;;;;4.10;3.25;;;12.90;99.90;;;;;;4995127;28;20045;-79
2024/04/04 11:31:27;;;;;;;4.88;2.72;;;12.80;99.90;;;;;;5010818;28;20113;-79
2024/04/04 11:33:53;;;;;;;5.70;3.10;;;12.70;99.90;;;;;;5011142;28;20044;-80
2024/04/04 11:36:20;;;;;;;6.63;2.30;;;12.70;99.90;;;;;;5010844;28;20088;-79
2024/04/04 11:38:46;;;;;;;5.13;3.10;;;12.80;99.90;;;;;;4978447;28;20054;-80
2024/04/04 11:41:12;;;;;;;3.65;2.53;;;12.70;99.90;;;;;;4994712;28;20046;-80
2024/04/04 11:43:39;;;;;;;2.55;1.75;;;12.80;99.90;;;;;;5011056;28;20073;-80
2024/04/04 11:46:11;;;;;;;5.75;2.05;;;12.90;99.90;;;;;;5010801;28;20053;-80
2024/04/04 11:48:41;;;;;;;2.47;2.35;;;13.00;99.90;;;;;;5010832;28;20097;-80
2024/04/04 11:51:07;;;;;;;5.30;2.47;;;13.10;99.90;;;;;;4994742;28;20046;-80
2024/04/04 11:53:34;;;;;;;6.03;1.85;;;13.30;99.90;;;;;;4994657;28;20042;-79
2024/04/04 11:56:00;;;;;;;4.18;1.92;;;13.60;99.90;;;;;;4994634;28;20046;-79
2024/04/04 11:58:31;;;;;;;5.38;3.13;;;13.70;99.90;;;;;;4994568;28;20050;-79
2024/04/04 12:00:58;;;;;;;4.40;1.75;;;13.70;99.90;;;;;;4994790;28;20439;-79
2024/04/04 12:03:26;;;;;;;4.70;2.00;;;13.60;99.90;;;;;;5014470;28;20042;-80
2024/04/04 12:05:52;;;;;;;2.83;1.60;;;13.50;99.90;;;;;;5014500;28;20054;-80
2024/04/04 12:08:18;;;;;;;5.13;1.58;;;13.50;99.90;;;;;;4998146;28;20092;-80
2024/04/04 12:10:44;;;;;;;4.05;1.83;;;13.40;99.90;;;;;;5014081;28;20045;-79
2024/04/04 12:13:10;;;;;;;1.52;1.00;;;13.30;99.90;;;;;;5014420;28;20056;-79
2024/04/04 12:15:37;;;;;;;4.95;2.22;;;13.70;99.90;;;;;;4997902;28;20050;-79
2024/04/04 12:20:49;;;;;;;2.67;1.45;;;14.80;99.90;;;;;;5014303;28;20045;-80
2024/04/04 12:23:15;;;;;;;3.00;1.27;;;14.90;99.90;;;;;;4981916;28;20041;-80
2024/04/04 12:25:45;;;;;;;5.28;1.20;;;14.80;99.90;;;;;;4981473;28;20046;-80
2024/04/04 12:28:11;;;;;;;8.57;1.98;;;14.80;99.90;;;;;;5014204;28;20050;-79
2024/04/04 12:30:37;;;;;;;4.05;1.45;;;14.70;99.90;;;;;;5013839;28;20049;-80
2024/04/04 12:33:04;;;;;;;4.50;1.25;;;14.50;99.90;;;;;;5014153;28;20505;-80
2024/04/04 12:35:30;;;;;;;3.22;1.58;;;14.40;99.90;;;;;;5013879;28;20073;-80
2024/04/04 12:37:56;;;;;;;4.43;1.73;;;14.40;99.90;;;;;;4997648;28;20056;-79
2024/04/04 12:40:22;;;;;;;5.78;1.50;;;14.50;99.90;;;;;;5013785;28;20086;-80
2024/04/04 12:42:47;;;;;;;6.65;1.55;;;14.80;99.90;;;;;;5013719;28;20715;-80
2024/04/04 12:45:14;;;;;;;4.68;1.60;;;15.40;99.90;;;;;;4997457;28;20118;-80
2024/04/04 12:47:39;;;;;;;7.30;2.30;;;16.10;99.90;;;;;;4997536;28;20042;-80
2024/04/04 12:50:05;;;;;;;8.10;2.25;;;16.10;99.90;;;;;;4997223;28;20113;-80
2024/04/04 12:52:32;;;;;;;5.47;1.67;;;15.80;99.90;;;;;;4996971;28;20491;-80